sensor_id;sensor_type;location;lat;lon;timestamp;P1;durP1;ratioP1;P2;durP2;ratioP2
16504;SDS011;8365;51.030;4.696;2024-03-22T00:01:59;46.50;;;33.37;;
16504;SDS011;8365;51.030;4.696;2024-03-22T00:04:29;47.63;;;32.97;;
16504;SDS011;8365;51.030;4.696;2024-03-22T00:07:00;50.13;;;34.60;;
16504;SDS011;8365;51.030;4.696;2024-03-22T00:09:30;47.13;;;33.67;;
16504;SDS011;8365;51.030;4.696;2024-03-22T00:12:01;49.03;;;34.57;;
16504;SDS011;8365;51.030;4.696;2024-03-22T00:14:34;52.73;;;35.97;;
16504;SDS011;8365;51.030;4.696;2024-03-22T00:17:04;51.10;;;35.07;;
16504;SDS011;8365;51.030;4.696;2024-03-22T00:19:37;50.03;;;34.20;;
16504;SDS011;8365;51.030;4.696;2024-03-22T00:22:07;49.43;;;34.13;;
16504;SDS011;8365;51.030;4.696;2024-03-22T00:24:39;48.30;;;34.23;;
16504;SDS011;8365;51.030;4.696;2024-03-22T00:27:09;49.80;;;34.70;;
16504;SDS011;8365;51.030;4.696;2024-03-22T00:29:42;50.70;;;36.37;;
16504;SDS011;8365;51.030;4.696;2024-03-22T00:32:13;47.93;;;34.77;;
16504;SDS011;8365;51.030;4.696;2024-03-22T00:34:43;46.03;;;35.30;;
16504;SDS011;8365;51.030;4.696;2024-03-22T00:37:14;52.53;;;35.47;;
16504;SDS011;8365;51.030;4.696;2024-03-22T00:39:44;44.40;;;33.43;;
16504;SDS011;8365;51.030;4.696;2024-03-22T00:42:15;47.90;;;34.67;;
16504;SDS011;8365;51.030;4.696;2024-03-22T00:44:45;45.63;;;34.80;;
16504;SDS011;8365;51.030;4.696;2024-03-22T00:47:15;47.37;;;33.70;;
16504;SDS011;8365;51.030;4.696;2024-03-22T00:49:46;47.57;;;33.07;;
16504;SDS011;8365;51.030;4.696;2024-03-22T00:52:16;48.53;;;34.07;;
16504;SDS011;8365;51.030;4.696;2024-03-22T00:54:47;47.33;;;33.90;;
16504;SDS011;8365;51.030;4.696;2024-03-22T00:57:19;47.20;;;33.90;;
16504;SDS011;8365;51.030;4.696;2024-03-22T00:59:50;45.83;;;34.83;;
16504;SDS011;8365;51.030;4.696;2024-03-22T01:02:20;45.50;;;33.13;;
16504;SDS011;8365;51.030;4.696;2024-03-22T01:04:52;50.37;;;34.60;;
16504;SDS011;8365;51.030;4.696;2024-03-22T01:07:22;47.50;;;32.93;;
16504;SDS011;8365;51.030;4.696;2024-03-22T01:09:53;46.57;;;33.33;;
16504;SDS011;8365;51.030;4.696;2024-03-22T01:12:23;47.57;;;34.40;;
16504;SDS011;8365;51.030;4.696;2024-03-22T01:14:54;41.43;;;32.70;;
16504;SDS011;8365;51.030;4.696;2024-03-22T01:17:24;46.20;;;32.17;;
16504;SDS011;8365;51.030;4.696;2024-03-22T01:19:55;44.10;;;31.77;;
16504;SDS011;8365;51.030;4.696;2024-03-22T01:22:28;39.53;;;28.33;;
16504;SDS011;8365;51.030;4.696;2024-03-22T01:24:59;35.90;;;27.73;;
16504;SDS011;8365;51.030;4.696;2024-03-22T01:27:29;34.97;;;27.43;;
16504;SDS011;8365;51.030;4.696;2024-03-22T01:30:00;36.30;;;27.23;;
16504;SDS011;8365;51.030;4.696;2024-03-22T01:32:33;36.40;;;27.03;;
16504;SDS011;8365;51.030;4.696;2024-03-22T01:35:03;32.97;;;25.50;;
16504;SDS011;8365;51.030;4.696;2024-03-22T01:37:34;32.83;;;25.30;;
16504;SDS011;8365;51.030;4.696;2024-03-22T01:40:05;29.53;;;24.03;;
16504;SDS011;8365;51.030;4.696;2024-03-22T01:42:36;30.60;;;24.17;;
16504;SDS011;8365;51.030;4.696;2024-03-22T01:45:07;34.00;;;25.03;;
16504;SDS011;8365;51.030;4.696;2024-03-22T01:47:38;31.70;;;24.30;;
16504;SDS011;8365;51.030;4.696;2024-03-22T01:50:09;29.23;;;23.87;;
16504;SDS011;8365;51.030;4.696;2024-03-22T01:52:40;30.53;;;23.40;;
16504;SDS011;8365;51.030;4.696;2024-03-22T01:55:10;31.27;;;24.67;;
16504;SDS011;8365;51.030;4.696;2024-03-22T01:57:41;30.07;;;24.70;;
16504;SDS011;8365;51.030;4.696;2024-03-22T02:00:12;31.47;;;25.13;;
16504;SDS011;8365;51.030;4.696;2024-03-22T02:02:43;31.20;;;25.27;;
16504;SDS011;8365;51.030;4.696;2024-03-22T02:07:54;31.33;;;25.10;;
16504;SDS011;8365;51.030;4.696;2024-03-22T02:10:25;35.57;;;27.07;;
16504;SDS011;8365;51.030;4.696;2024-03-22T02:12:58;29.87;;;24.03;;
16504;SDS011;8365;51.030;4.696;2024-03-22T02:15:29;31.93;;;25.63;;
16504;SDS011;8365;51.030;4.696;2024-03-22T02:18:01;32.73;;;26.80;;
16504;SDS011;8365;51.030;4.696;2024-03-22T02:20:32;33.40;;;26.23;;
16504;SDS011;8365;51.030;4.696;2024-03-22T02:23:05;34.13;;;25.57;;
16504;SDS011;8365;51.030;4.696;2024-03-22T02:25:35;31.17;;;24.97;;
16504;SDS011;8365;51.030;4.696;2024-03-22T02:28:06;32.20;;;25.57;;
16504;SDS011;8365;51.030;4.696;2024-03-22T02:30:36;30.30;;;25.37;;
16504;SDS011;8365;51.030;4.696;2024-03-22T02:33:07;30.53;;;24.43;;
16504;SDS011;8365;51.030;4.696;2024-03-22T02:35:37;29.23;;;24.30;;
16504;SDS011;8365;51.030;4.696;2024-03-22T02:38:10;35.90;;;25.63;;
16504;SDS011;8365;51.030;4.696;2024-03-22T02:40:42;32.33;;;25.87;;
16504;SDS011;8365;51.030;4.696;2024-03-22T02:43:13;33.20;;;25.97;;
16504;SDS011;8365;51.030;4.696;2024-03-22T02:45:44;33.53;;;25.43;;
16504;SDS011;8365;51.030;4.696;2024-03-22T02:48:15;30.63;;;24.77;;
16504;SDS011;8365;51.030;4.696;2024-03-22T02:50:45;33.57;;;25.13;;
16504;SDS011;8365;51.030;4.696;2024-03-22T02:53:15;32.37;;;25.70;;
16504;SDS011;8365;51.030;4.696;2024-03-22T02:55:46;33.57;;;24.23;;
16504;SDS011;8365;51.030;4.696;2024-03-22T02:58:17;32.87;;;24.33;;
16504;SDS011;8365;51.030;4.696;2024-03-22T03:00:48;30.07;;;22.87;;
16504;SDS011;8365;51.030;4.696;2024-03-22T03:03:19;33.13;;;25.30;;
16504;SDS011;8365;51.030;4.696;2024-03-22T03:05:49;30.77;;;22.53;;
16504;SDS011;8365;51.030;4.696;2024-03-22T03:08:20;29.37;;;22.73;;
16504;SDS011;8365;51.030;4.696;2024-03-22T03:10:52;26.93;;;22.30;;
16504;SDS011;8365;51.030;4.696;2024-03-22T03:13:23;29.73;;;23.73;;
16504;SDS011;8365;51.030;4.696;2024-03-22T03:15:53;30.53;;;22.00;;
16504;SDS011;8365;51.030;4.696;2024-03-22T03:18:24;29.90;;;24.43;;
16504;SDS011;8365;51.030;4.696;2024-03-22T03:20:54;27.73;;;21.43;;
16504;SDS011;8365;51.030;4.696;2024-03-22T03:23:27;30.70;;;22.17;;
16504;SDS011;8365;51.030;4.696;2024-03-22T03:25:57;29.93;;;22.70;;
16504;SDS011;8365;51.030;4.696;2024-03-22T03:28:28;29.50;;;22.93;;
16504;SDS011;8365;51.030;4.696;2024-03-22T03:30:58;29.73;;;23.10;;
16504;SDS011;8365;51.030;4.696;2024-03-22T03:33:31;25.40;;;21.73;;
16504;SDS011;8365;51.030;4.696;2024-03-22T03:36:01;28.57;;;22.53;;
16504;SDS011;8365;51.030;4.696;2024-03-22T03:38:32;28.47;;;22.23;;
16504;SDS011;8365;51.030;4.696;2024-03-22T03:41:03;27.87;;;21.33;;
16504;SDS011;8365;51.030;4.696;2024-03-22T03:43:33;28.20;;;22.00;;
16504;SDS011;8365;51.030;4.696;2024-03-22T03:46:04;26.40;;;21.33;;
16504;SDS011;8365;51.030;4.696;2024-03-22T03:48:34;26.40;;;20.60;;
16504;SDS011;8365;51.030;4.696;2024-03-22T03:51:05;28.00;;;21.50;;
16504;SDS011;8365;51.030;4.696;2024-03-22T03:53:35;25.63;;;20.90;;
16504;SDS011;8365;51.030;4.696;2024-03-22T03:56:06;28.10;;;20.80;;
16504;SDS011;8365;51.030;4.696;2024-03-22T03:58:36;26.97;;;20.77;;
16504;SDS011;8365;51.030;4.696;2024-03-22T04:01:09;29.70;;;20.03;;
16504;SDS011;8365;51.030;4.696;2024-03-22T04:03:39;26.83;;;20.13;;
16504;SDS011;8365;51.030;4.696;2024-03-22T04:06:10;27.63;;;21.33;;
16504;SDS011;8365;51.030;4.696;2024-03-22T04:08:40;25.87;;;20.17;;
16504;SDS011;8365;51.030;4.696;2024-03-22T04:11:11;27.40;;;20.23;;
16504;SDS011;8365;51.030;4.696;2024-03-22T04:13:41;27.17;;;21.17;;
16504;SDS011;8365;51.030;4.696;2024-03-22T04:16:12;26.07;;;20.67;;
16504;SDS011;8365;51.030;4.696;2024-03-22T04:18:42;26.33;;;20.83;;
16504;SDS011;8365;51.030;4.696;2024-03-22T04:21:13;30.07;;;21.33;;
16504;SDS011;8365;51.030;4.696;2024-03-22T04:23:43;26.03;;;19.93;;
16504;SDS011;8365;51.030;4.696;2024-03-22T04:26:14;27.23;;;20.30;;
16504;SDS011;8365;51.030;4.696;2024-03-22T04:28:45;26.17;;;20.93;;
16504;SDS011;8365;51.030;4.696;2024-03-22T04:31:15;25.97;;;20.83;;
16504;SDS011;8365;51.030;4.696;2024-03-22T04:33:46;26.87;;;20.17;;
16504;SDS011;8365;51.030;4.696;2024-03-22T04:36:16;27.80;;;21.13;;
16504;SDS011;8365;51.030;4.696;2024-03-22T04:38:47;25.60;;;18.73;;
16504;SDS011;8365;51.030;4.696;2024-03-22T04:41:18;26.43;;;20.87;;
16504;SDS011;8365;51.030;4.696;2024-03-22T04:43:49;28.20;;;18.83;;
16504;SDS011;8365;51.030;4.696;2024-03-22T04:46:19;25.47;;;19.03;;
16504;SDS011;8365;51.030;4.696;2024-03-22T04:48:50;25.33;;;19.27;;
16504;SDS011;8365;51.030;4.696;2024-03-22T04:51:20;25.80;;;19.43;;
16504;SDS011;8365;51.030;4.696;2024-03-22T04:53:50;26.80;;;19.37;;
16504;SDS011;8365;51.030;4.696;2024-03-22T04:56:21;24.73;;;18.57;;
16504;SDS011;8365;51.030;4.696;2024-03-22T04:58:51;25.00;;;18.03;;
16504;SDS011;8365;51.030;4.696;2024-03-22T05:01:22;23.90;;;18.97;;
16504;SDS011;8365;51.030;4.696;2024-03-22T05:03:53;24.43;;;18.50;;
16504;SDS011;8365;51.030;4.696;2024-03-22T05:06:24;23.00;;;18.80;;
16504;SDS011;8365;51.030;4.696;2024-03-22T05:08:57;24.47;;;18.77;;
16504;SDS011;8365;51.030;4.696;2024-03-22T05:11:28;25.73;;;19.30;;
16504;SDS011;8365;51.030;4.696;2024-03-22T05:13:58;21.70;;;18.23;;
16504;SDS011;8365;51.030;4.696;2024-03-22T05:16:28;25.23;;;18.97;;
16504;SDS011;8365;51.030;4.696;2024-03-22T05:18:59;26.13;;;18.93;;
16504;SDS011;8365;51.030;4.696;2024-03-22T05:21:29;24.73;;;17.70;;
16504;SDS011;8365;51.030;4.696;2024-03-22T05:24:00;21.93;;;17.07;;
16504;SDS011;8365;51.030;4.696;2024-03-22T05:26:30;23.13;;;18.53;;
16504;SDS011;8365;51.030;4.696;2024-03-22T05:29:06;25.00;;;18.57;;
16504;SDS011;8365;51.030;4.696;2024-03-22T05:31:45;24.03;;;18.43;;
16504;SDS011;8365;51.030;4.696;2024-03-22T05:34:18;25.90;;;19.43;;
16504;SDS011;8365;51.030;4.696;2024-03-22T05:36:48;24.30;;;18.50;;
16504;SDS011;8365;51.030;4.696;2024-03-22T05:39:19;25.83;;;19.73;;
16504;SDS011;8365;51.030;4.696;2024-03-22T05:41:49;25.00;;;19.87;;
16504;SDS011;8365;51.030;4.696;2024-03-22T05:44:21;26.40;;;18.67;;
16504;SDS011;8365;51.030;4.696;2024-03-22T05:46:52;27.07;;;19.40;;
16504;SDS011;8365;51.030;4.696;2024-03-22T05:49:26;26.90;;;20.63;;
16504;SDS011;8365;51.030;4.696;2024-03-22T05:51:56;25.00;;;18.93;;
16504;SDS011;8365;51.030;4.696;2024-03-22T05:54:27;23.43;;;18.30;;
16504;SDS011;8365;51.030;4.696;2024-03-22T05:56:57;24.63;;;19.23;;
16504;SDS011;8365;51.030;4.696;2024-03-22T05:59:28;27.37;;;20.43;;
16504;SDS011;8365;51.030;4.696;2024-03-22T06:01:59;24.60;;;19.53;;
16504;SDS011;8365;51.030;4.696;2024-03-22T06:04:30;24.47;;;19.33;;
16504;SDS011;8365;51.030;4.696;2024-03-22T06:07:01;26.50;;;19.93;;
16504;SDS011;8365;51.030;4.696;2024-03-22T06:09:34;26.77;;;20.07;;
16504;SDS011;8365;51.030;4.696;2024-03-22T06:12:07;26.10;;;19.40;;
16504;SDS011;8365;51.030;4.696;2024-03-22T06:14:37;29.10;;;19.70;;
16504;SDS011;8365;51.030;4.696;2024-03-22T06:17:08;26.70;;;18.87;;
16504;SDS011;8365;51.030;4.696;2024-03-22T06:19:39;23.33;;;18.90;;
16504;SDS011;8365;51.030;4.696;2024-03-22T06:22:10;24.67;;;18.70;;
16504;SDS011;8365;51.030;4.696;2024-03-22T06:24:40;26.30;;;18.80;;
16504;SDS011;8365;51.030;4.696;2024-03-22T06:27:13;21.70;;;17.63;;
16504;SDS011;8365;51.030;4.696;2024-03-22T06:29:44;23.97;;;17.77;;
16504;SDS011;8365;51.030;4.696;2024-03-22T06:32:15;24.47;;;18.27;;
16504;SDS011;8365;51.030;4.696;2024-03-22T06:34:45;22.77;;;17.57;;
16504;SDS011;8365;51.030;4.696;2024-03-22T06:37:18;24.93;;;18.60;;
16504;SDS011;8365;51.030;4.696;2024-03-22T06:39:48;22.10;;;17.30;;
16504;SDS011;8365;51.030;4.696;2024-03-22T06:42:18;23.30;;;18.43;;
16504;SDS011;8365;51.030;4.696;2024-03-22T06:44:49;19.67;;;16.80;;
16504;SDS011;8365;51.030;4.696;2024-03-22T06:47:19;22.87;;;16.63;;
16504;SDS011;8365;51.030;4.696;2024-03-22T06:49:50;22.43;;;17.27;;
16504;SDS011;8365;51.030;4.696;2024-03-22T06:52:21;22.67;;;16.40;;
16504;SDS011;8365;51.030;4.696;2024-03-22T06:54:51;21.40;;;17.33;;
16504;SDS011;8365;51.030;4.696;2024-03-22T06:57:23;22.87;;;17.27;;
16504;SDS011;8365;51.030;4.696;2024-03-22T06:59:53;23.00;;;16.13;;
16504;SDS011;8365;51.030;4.696;2024-03-22T07:02:24;22.07;;;14.77;;
16504;SDS011;8365;51.030;4.696;2024-03-22T07:04:55;18.20;;;15.80;;
16504;SDS011;8365;51.030;4.696;2024-03-22T07:07:26;18.50;;;14.40;;
16504;SDS011;8365;51.030;4.696;2024-03-22T07:09:56;18.20;;;14.77;;
16504;SDS011;8365;51.030;4.696;2024-03-22T07:12:27;16.80;;;13.57;;
16504;SDS011;8365;51.030;4.696;2024-03-22T07:14:58;18.13;;;14.47;;
16504;SDS011;8365;51.030;4.696;2024-03-22T07:17:30;19.40;;;14.43;;
16504;SDS011;8365;51.030;4.696;2024-03-22T07:20:00;20.40;;;13.87;;
16504;SDS011;8365;51.030;4.696;2024-03-22T07:22:32;17.77;;;13.53;;
16504;SDS011;8365;51.030;4.696;2024-03-22T07:25:02;18.27;;;14.13;;
16504;SDS011;8365;51.030;4.696;2024-03-22T07:27:34;19.30;;;14.40;;
16504;SDS011;8365;51.030;4.696;2024-03-22T07:30:05;20.23;;;14.47;;
16504;SDS011;8365;51.030;4.696;2024-03-22T07:32:35;16.63;;;12.60;;
16504;SDS011;8365;51.030;4.696;2024-03-22T07:35:07;16.03;;;11.73;;
16504;SDS011;8365;51.030;4.696;2024-03-22T07:37:42;18.07;;;12.67;;
16504;SDS011;8365;51.030;4.696;2024-03-22T07:40:13;15.97;;;11.97;;
16504;SDS011;8365;51.030;4.696;2024-03-22T07:42:43;15.03;;;12.20;;
16504;SDS011;8365;51.030;4.696;2024-03-22T07:45:14;13.67;;;11.07;;
16504;SDS011;8365;51.030;4.696;2024-03-22T07:47:44;15.37;;;11.90;;
16504;SDS011;8365;51.030;4.696;2024-03-22T07:50:15;16.47;;;12.17;;
16504;SDS011;8365;51.030;4.696;2024-03-22T07:52:46;16.23;;;11.70;;
16504;SDS011;8365;51.030;4.696;2024-03-22T07:55:16;13.97;;;11.73;;
16504;SDS011;8365;51.030;4.696;2024-03-22T07:57:47;18.37;;;10.93;;
16504;SDS011;8365;51.030;4.696;2024-03-22T08:00:17;15.17;;;11.30;;
16504;SDS011;8365;51.030;4.696;2024-03-22T08:02:48;13.60;;;10.77;;
16504;SDS011;8365;51.030;4.696;2024-03-22T08:05:18;14.17;;;11.17;;
16504;SDS011;8365;51.030;4.696;2024-03-22T08:07:52;13.53;;;10.23;;
16504;SDS011;8365;51.030;4.696;2024-03-22T08:10:24;12.37;;;10.33;;
16504;SDS011;8365;51.030;4.696;2024-03-22T08:12:55;14.47;;;10.67;;
16504;SDS011;8365;51.030;4.696;2024-03-22T08:15:28;12.23;;;10.47;;
16504;SDS011;8365;51.030;4.696;2024-03-22T08:17:58;12.60;;;10.00;;
16504;SDS011;8365;51.030;4.696;2024-03-22T08:20:29;12.63;;;11.10;;
16504;SDS011;8365;51.030;4.696;2024-03-22T08:23:00;11.47;;;9.77;;
16504;SDS011;8365;51.030;4.696;2024-03-22T08:25:30;11.50;;;9.63;;
16504;SDS011;8365;51.030;4.696;2024-03-22T08:28:01;13.20;;;9.90;;
16504;SDS011;8365;51.030;4.696;2024-03-22T08:30:31;12.57;;;9.33;;
16504;SDS011;8365;51.030;4.696;2024-03-22T08:33:02;11.10;;;9.10;;
16504;SDS011;8365;51.030;4.696;2024-03-22T08:35:34;10.83;;;9.43;;
16504;SDS011;8365;51.030;4.696;2024-03-22T08:38:04;12.03;;;9.10;;
16504;SDS011;8365;51.030;4.696;2024-03-22T08:40:39;11.93;;;9.70;;
16504;SDS011;8365;51.030;4.696;2024-03-22T08:43:10;12.30;;;9.60;;
16504;SDS011;8365;51.030;4.696;2024-03-22T08:45:43;11.83;;;9.73;;
16504;SDS011;8365;51.030;4.696;2024-03-22T08:48:14;10.30;;;8.97;;
16504;SDS011;8365;51.030;4.696;2024-03-22T08:50:44;12.10;;;10.30;;
16504;SDS011;8365;51.030;4.696;2024-03-22T08:53:15;15.87;;;9.53;;
16504;SDS011;8365;51.030;4.696;2024-03-22T08:55:46;10.90;;;9.57;;
16504;SDS011;8365;51.030;4.696;2024-03-22T08:58:17;11.60;;;9.43;;
16504;SDS011;8365;51.030;4.696;2024-03-22T09:00:48;10.97;;;9.07;;
16504;SDS011;8365;51.030;4.696;2024-03-22T09:03:18;14.03;;;9.63;;
16504;SDS011;8365;51.030;4.696;2024-03-22T09:05:54;10.80;;;8.73;;
16504;SDS011;8365;51.030;4.696;2024-03-22T09:08:24;10.93;;;8.67;;
16504;SDS011;8365;51.030;4.696;2024-03-22T09:10:55;11.60;;;9.40;;
16504;SDS011;8365;51.030;4.696;2024-03-22T09:13:25;10.30;;;9.20;;
16504;SDS011;8365;51.030;4.696;2024-03-22T09:15:59;11.03;;;9.13;;
16504;SDS011;8365;51.030;4.696;2024-03-22T09:18:30;10.77;;;9.10;;
16504;SDS011;8365;51.030;4.696;2024-03-22T09:21:01;10.87;;;9.13;;
16504;SDS011;8365;51.030;4.696;2024-03-22T09:23:31;12.73;;;9.33;;
16504;SDS011;8365;51.030;4.696;2024-03-22T09:26:02;10.20;;;8.70;;
16504;SDS011;8365;51.030;4.696;2024-03-22T09:28:32;11.77;;;9.03;;
16504;SDS011;8365;51.030;4.696;2024-03-22T09:31:03;12.80;;;9.93;;
16504;SDS011;8365;51.030;4.696;2024-03-22T09:33:35;13.60;;;10.13;;
16504;SDS011;8365;51.030;4.696;2024-03-22T09:36:06;13.97;;;10.07;;
16504;SDS011;8365;51.030;4.696;2024-03-22T09:38:39;12.30;;;9.53;;
16504;SDS011;8365;51.030;4.696;2024-03-22T09:41:09;13.37;;;10.40;;
16504;SDS011;8365;51.030;4.696;2024-03-22T09:43:42;11.00;;;9.07;;
16504;SDS011;8365;51.030;4.696;2024-03-22T09:46:15;14.20;;;10.47;;
16504;SDS011;8365;51.030;4.696;2024-03-22T09:48:49;15.10;;;9.57;;
16504;SDS011;8365;51.030;4.696;2024-03-22T09:51:19;11.37;;;9.40;;
16504;SDS011;8365;51.030;4.696;2024-03-22T09:53:51;14.40;;;10.10;;
16504;SDS011;8365;51.030;4.696;2024-03-22T09:56:23;12.00;;;10.20;;
16504;SDS011;8365;51.030;4.696;2024-03-22T09:58:57;15.50;;;10.77;;
16504;SDS011;8365;51.030;4.696;2024-03-22T10:01:28;13.80;;;10.13;;
16504;SDS011;8365;51.030;4.696;2024-03-22T10:03:59;14.03;;;10.90;;
16504;SDS011;8365;51.030;4.696;2024-03-22T10:06:30;13.80;;;11.07;;
16504;SDS011;8365;51.030;4.696;2024-03-22T10:09:02;13.63;;;10.90;;
16504;SDS011;8365;51.030;4.696;2024-03-22T10:11:34;13.53;;;10.77;;
16504;SDS011;8365;51.030;4.696;2024-03-22T10:14:05;14.60;;;10.77;;
16504;SDS011;8365;51.030;4.696;2024-03-22T10:16:38;14.03;;;11.03;;
16504;SDS011;8365;51.030;4.696;2024-03-22T10:19:09;15.20;;;10.90;;
16504;SDS011;8365;51.030;4.696;2024-03-22T10:21:40;13.63;;;10.73;;
16504;SDS011;8365;51.030;4.696;2024-03-22T10:24:10;14.33;;;11.53;;
16504;SDS011;8365;51.030;4.696;2024-03-22T10:26:41;13.90;;;11.03;;
16504;SDS011;8365;51.030;4.696;2024-03-22T10:29:13;14.20;;;10.93;;
16504;SDS011;8365;51.030;4.696;2024-03-22T10:31:44;17.47;;;12.17;;
16504;SDS011;8365;51.030;4.696;2024-03-22T10:34:14;13.27;;;11.17;;
16504;SDS011;8365;51.030;4.696;2024-03-22T10:36:48;14.40;;;11.87;;
16504;SDS011;8365;51.030;4.696;2024-03-22T10:39:19;16.63;;;12.93;;
16504;SDS011;8365;51.030;4.696;2024-03-22T10:41:50;16.33;;;11.73;;
16504;SDS011;8365;51.030;4.696;2024-03-22T10:44:20;15.70;;;11.47;;
16504;SDS011;8365;51.030;4.696;2024-03-22T10:46:51;16.27;;;11.83;;
16504;SDS011;8365;51.030;4.696;2024-03-22T10:49:25;16.80;;;11.50;;
16504;SDS011;8365;51.030;4.696;2024-03-22T10:51:59;18.47;;;11.93;;
16504;SDS011;8365;51.030;4.696;2024-03-22T10:54:33;14.90;;;12.00;;
16504;SDS011;8365;51.030;4.696;2024-03-22T10:57:10;18.97;;;12.93;;
16504;SDS011;8365;51.030;4.696;2024-03-22T10:59:42;15.50;;;12.23;;
16504;SDS011;8365;51.030;4.696;2024-03-22T11:02:13;18.67;;;12.70;;
16504;SDS011;8365;51.030;4.696;2024-03-22T11:04:53;16.23;;;12.53;;
16504;SDS011;8365;51.030;4.696;2024-03-22T11:07:28;17.67;;;13.00;;
16504;SDS011;8365;51.030;4.696;2024-03-22T11:10:02;17.70;;;13.03;;
16504;SDS011;8365;51.030;4.696;2024-03-22T11:12:37;15.77;;;13.33;;
16504;SDS011;8365;51.030;4.696;2024-03-22T11:15:08;17.43;;;12.87;;
16504;SDS011;8365;51.030;4.696;2024-03-22T11:17:40;18.27;;;13.27;;
16504;SDS011;8365;51.030;4.696;2024-03-22T11:20:12;16.67;;;13.57;;
16504;SDS011;8365;51.030;4.696;2024-03-22T11:22:43;16.47;;;13.47;;
16504;SDS011;8365;51.030;4.696;2024-03-22T11:25:13;21.03;;;13.73;;
16504;SDS011;8365;51.030;4.696;2024-03-22T11:27:44;16.37;;;12.37;;
16504;SDS011;8365;51.030;4.696;2024-03-22T11:30:15;16.63;;;12.43;;
16504;SDS011;8365;51.030;4.696;2024-03-22T11:32:48;16.13;;;12.60;;
16504;SDS011;8365;51.030;4.696;2024-03-22T11:35:22;14.77;;;12.20;;
16504;SDS011;8365;51.030;4.696;2024-03-22T11:37:53;17.13;;;12.40;;
16504;SDS011;8365;51.030;4.696;2024-03-22T11:40:24;15.03;;;11.50;;
16504;SDS011;8365;51.030;4.696;2024-03-22T11:42:56;20.07;;;11.77;;
16504;SDS011;8365;51.030;4.696;2024-03-22T11:45:27;14.70;;;10.80;;
16504;SDS011;8365;51.030;4.696;2024-03-22T11:48:01;17.33;;;10.87;;
16504;SDS011;8365;51.030;4.696;2024-03-22T11:50:32;16.07;;;11.20;;
16504;SDS011;8365;51.030;4.696;2024-03-22T11:53:06;15.17;;;10.50;;
16504;SDS011;8365;51.030;4.696;2024-03-22T11:55:36;17.50;;;10.60;;
16504;SDS011;8365;51.030;4.696;2024-03-22T11:58:08;15.17;;;10.47;;
16504;SDS011;8365;51.030;4.696;2024-03-22T12:00:41;13.90;;;10.27;;
16504;SDS011;8365;51.030;4.696;2024-03-22T12:03:15;14.67;;;10.63;;
16504;SDS011;8365;51.030;4.696;2024-03-22T12:05:45;12.10;;;9.40;;
16504;SDS011;8365;51.030;4.696;2024-03-22T12:08:16;12.37;;;9.53;;
16504;SDS011;8365;51.030;4.696;2024-03-22T12:10:48;15.23;;;10.67;;
16504;SDS011;8365;51.030;4.696;2024-03-22T12:13:18;13.47;;;10.20;;
16504;SDS011;8365;51.030;4.696;2024-03-22T12:15:48;14.47;;;10.37;;
16504;SDS011;8365;51.030;4.696;2024-03-22T12:18:19;12.13;;;10.30;;
16504;SDS011;8365;51.030;4.696;2024-03-22T12:20:49;17.20;;;10.53;;
16504;SDS011;8365;51.030;4.696;2024-03-22T12:23:22;15.00;;;10.27;;
16504;SDS011;8365;51.030;4.696;2024-03-22T12:25:53;12.87;;;9.80;;
16504;SDS011;8365;51.030;4.696;2024-03-22T12:28:24;14.90;;;10.47;;
16504;SDS011;8365;51.030;4.696;2024-03-22T12:30:54;13.77;;;10.60;;
16504;SDS011;8365;51.030;4.696;2024-03-22T12:33:25;12.93;;;10.27;;
16504;SDS011;8365;51.030;4.696;2024-03-22T12:35:56;15.40;;;9.87;;
16504;SDS011;8365;51.030;4.696;2024-03-22T12:38:29;13.10;;;10.47;;
16504;SDS011;8365;51.030;4.696;2024-03-22T12:40:59;13.27;;;9.80;;
16504;SDS011;8365;51.030;4.696;2024-03-22T12:43:30;14.57;;;11.00;;
16504;SDS011;8365;51.030;4.696;2024-03-22T12:46:01;12.40;;;9.77;;
16504;SDS011;8365;51.030;4.696;2024-03-22T12:48:33;13.23;;;10.43;;
16504;SDS011;8365;51.030;4.696;2024-03-22T12:51:03;14.53;;;9.90;;
16504;SDS011;8365;51.030;4.696;2024-03-22T12:53:34;15.10;;;9.60;;
16504;SDS011;8365;51.030;4.696;2024-03-22T12:56:04;12.40;;;9.00;;
16504;SDS011;8365;51.030;4.696;2024-03-22T12:58:35;11.87;;;9.27;;
16504;SDS011;8365;51.030;4.696;2024-03-22T13:01:05;13.30;;;9.37;;
16504;SDS011;8365;51.030;4.696;2024-03-22T13:03:38;12.30;;;8.27;;
16504;SDS011;8365;51.030;4.696;2024-03-22T13:06:08;10.93;;;8.63;;
16504;SDS011;8365;51.030;4.696;2024-03-22T13:08:39;12.90;;;9.57;;
16504;SDS011;8365;51.030;4.696;2024-03-22T13:11:09;12.80;;;8.93;;
16504;SDS011;8365;51.030;4.696;2024-03-22T13:13:39;15.87;;;9.90;;
16504;SDS011;8365;51.030;4.696;2024-03-22T13:16:10;16.77;;;9.73;;
16504;SDS011;8365;51.030;4.696;2024-03-22T13:18:44;13.60;;;10.37;;
16504;SDS011;8365;51.030;4.696;2024-03-22T13:21:15;10.70;;;9.63;;
16504;SDS011;8365;51.030;4.696;2024-03-22T13:23:45;14.20;;;9.60;;
16504;SDS011;8365;51.030;4.696;2024-03-22T13:26:16;14.07;;;9.93;;
16504;SDS011;8365;51.030;4.696;2024-03-22T13:28:46;14.67;;;10.67;;
16504;SDS011;8365;51.030;4.696;2024-03-22T13:31:16;14.70;;;8.63;;
16504;SDS011;8365;51.030;4.696;2024-03-22T13:33:47;13.87;;;9.27;;
16504;SDS011;8365;51.030;4.696;2024-03-22T13:36:17;11.80;;;8.83;;
16504;SDS011;8365;51.030;4.696;2024-03-22T13:38:49;16.83;;;9.77;;
16504;SDS011;8365;51.030;4.696;2024-03-22T13:41:19;14.83;;;10.30;;
16504;SDS011;8365;51.030;4.696;2024-03-22T13:43:50;12.30;;;8.93;;
16504;SDS011;8365;51.030;4.696;2024-03-22T13:46:20;11.67;;;9.17;;
16504;SDS011;8365;51.030;4.696;2024-03-22T13:48:51;13.30;;;9.67;;
16504;SDS011;8365;51.030;4.696;2024-03-22T13:51:23;16.27;;;10.03;;
16504;SDS011;8365;51.030;4.696;2024-03-22T13:53:55;15.87;;;9.73;;
16504;SDS011;8365;51.030;4.696;2024-03-22T13:56:25;12.80;;;9.70;;
16504;SDS011;8365;51.030;4.696;2024-03-22T13:58:58;16.47;;;10.03;;
16504;SDS011;8365;51.030;4.696;2024-03-22T14:01:29;16.53;;;10.20;;
16504;SDS011;8365;51.030;4.696;2024-03-22T14:04:00;12.57;;;9.37;;
16504;SDS011;8365;51.030;4.696;2024-03-22T14:06:31;12.20;;;9.23;;
16504;SDS011;8365;51.030;4.696;2024-03-22T14:09:02;11.73;;;9.60;;
16504;SDS011;8365;51.030;4.696;2024-03-22T14:11:33;12.50;;;9.70;;
16504;SDS011;8365;51.030;4.696;2024-03-22T14:14:03;16.10;;;10.07;;
16504;SDS011;8365;51.030;4.696;2024-03-22T14:16:34;13.80;;;10.67;;
16504;SDS011;8365;51.030;4.696;2024-03-22T14:19:04;15.97;;;10.10;;
16504;SDS011;8365;51.030;4.696;2024-03-22T14:21:38;12.43;;;9.97;;
16504;SDS011;8365;51.030;4.696;2024-03-22T14:24:09;13.90;;;8.90;;
16504;SDS011;8365;51.030;4.696;2024-03-22T14:26:39;14.73;;;9.80;;
16504;SDS011;8365;51.030;4.696;2024-03-22T14:29:13;13.07;;;9.73;;
16504;SDS011;8365;51.030;4.696;2024-03-22T14:31:43;15.47;;;10.30;;
16504;SDS011;8365;51.030;4.696;2024-03-22T14:34:15;13.53;;;10.30;;
16504;SDS011;8365;51.030;4.696;2024-03-22T14:36:47;11.03;;;9.77;;
16504;SDS011;8365;51.030;4.696;2024-03-22T14:39:20;19.20;;;10.40;;
16504;SDS011;8365;51.030;4.696;2024-03-22T14:41:50;12.13;;;9.80;;
16504;SDS011;8365;51.030;4.696;2024-03-22T14:44:21;12.03;;;9.47;;
16504;SDS011;8365;51.030;4.696;2024-03-22T14:46:52;11.63;;;9.53;;
16504;SDS011;8365;51.030;4.696;2024-03-22T14:49:24;16.53;;;9.90;;
16504;SDS011;8365;51.030;4.696;2024-03-22T14:51:55;14.27;;;10.87;;
16504;SDS011;8365;51.030;4.696;2024-03-22T14:54:25;13.10;;;10.20;;
16504;SDS011;8365;51.030;4.696;2024-03-22T14:56:55;14.23;;;10.90;;
16504;SDS011;8365;51.030;4.696;2024-03-22T14:59:29;13.57;;;9.83;;
16504;SDS011;8365;51.030;4.696;2024-03-22T15:02:00;14.33;;;9.50;;
16504;SDS011;8365;51.030;4.696;2024-03-22T15:04:32;11.93;;;10.17;;